Terminal Aerodrome Forecast
Issued by NWS Huntsville, AL

Home | Current Version | Previous Version | Text Only | Print | Product List | Glossary On
Versions: 1 2 3 4 5 6 7 8 9 10 11 12 13 14 15 16 17 18 19 20 21 22 23 24
000
FTUS44 KHUN 050933 AAA
TAFHSV
TAF AMD
KHSV 050933Z 0510/0606 00000KT P6SM BKN250
     FM051400 25007KT P6SM BKN090 BKN180 OVC250
     FM052200 14005KT P6SM VCTS SCT040CB BKN070 OVC150=

USA.gov is the U.S. government's official web portal to all federal, state and local government web resources and services.